This is the latest recevied weather packets stored in our database for station/object 1NW106. If no packets are shown the sender has not sent any weather packets the latest 10 day(s).
| Time | Temp. | Humidity | Pressure | Rain* | Wind** | Luminosity | Snow |
|---|---|---|---|---|---|---|---|
| 1788073172 | 27.22° C | 97% | 1007.2 hPa | 33.78 mm | - | - | - |
| 1788072572 | 27.22° C | 96% | 1007.6 hPa | 33.78 mm | - | - | - |
| 1788071972 | 27.22° C | 92% | 1008.2 hPa | 33.78 mm | - | - | - |
| 1788071372 | 27.78° C | 92% | 1008.4 hPa | 33.78 mm | - | - | - |
| 1788070772 | 27.78° C | 91% | 1008.6 hPa | 33.78 mm | - | - | - |
| 1788070172 | 28.33° C | 89% | 1008.9 hPa | 33.78 mm | - | - | - |
| 1788069572 | 27.78° C | 92% | 1008.8 hPa | 33.78 mm | - | - | - |
| 1788068972 | 27.78° C | 94% | 1008.5 hPa | 33.78 mm | - | - | - |
| 1788068372 | 27.22° C | 96% | 1008.4 hPa | 33.78 mm | - | - | - |
| 1788067772 | 27.22° C | 98% | 1008.1 hPa | 33.78 mm | - | - | - |
| 1788067172 | 27.22° C | 98% | 1008.1 hPa | 33.78 mm | - | - | - |
| 1788066572 | 27.22° C | 97% | 1008.5 hPa | 33.78 mm | - | - | - |
| 1788065972 | 27.22° C | 94% | 1009.1 hPa | 33.78 mm | - | - | - |
| 1788065372 | 27.22° C | 93% | 1009.3 hPa | 33.78 mm | - | - | - |
| 1788064772 | 27.22° C | 94% | 1009.4 hPa | 33.78 mm | - | - | - |
| 1788064172 | 27.22° C | 95% | 1009.1 hPa | 33.78 mm | - | - | - |
| 1788063572 | 27.22° C | 99% | 1008.6 hPa | 33.78 mm | - | - | - |
| 1788062972 | 27.22° C | 95% | 1009.1 hPa | 33.78 mm | - | - | - |
| 1788061772 | 27.22° C | 96% | 1009 hPa | 33.78 mm | - | - | - |
| 1788061180 | 27.22° C | 92% | 1009.7 hPa | 33.78 mm | - | - | - |
| 1788060572 | 27.22° C | 92% | 1009.6 hPa | 33.78 mm | - | - | - |
| 1788059972 | 27.22° C | 92% | 1009.5 hPa | 33.78 mm | - | - | - |
| 1788059372 | 27.22° C | 92% | 1009.4 hPa | 33.78 mm | - | - | - |
| 1788058772 | 27.22° C | 94% | 1009.1 hPa | 33.78 mm | - | - | - |
| 1788057572 | 26.67° C | 94% | 1009.1 hPa | 33.78 mm | - | - | - |
* Rain latest hour (hover to see other rain measurements)
** Current wind speed in m/s (hover to see current wind gust speed)